Neafus, Kentucky
Current Conditions -  °F | °C
As of 9:53 AM on Tuesday 21 Oct 2014 (Local Time) from KBWG Reporting Station
Clear Clear  
Wind Chill: 61°   Ceiling: Unl
Heat Index: 61°   Visibility: 10mi
Dew Point: 48°   Wind: 5mph
Humidity: 62%   Direction: 20°NNE
Pressure: 30.07"   Gusts: NA
Location:  37.4228°N, 86.4831°W
Report Text: KBWG 211453Z AUTO 02004KT 10SM CLR 16/09 A3007 RMK AO2 SLP181 T01610089 51014
Loading
Personal Weather Stations






























Interactive Weather Map
Tropical Storm Tracking
New forecast layout! Learn more

10-Day Weather Forecast

Advertisements
Track Severe Weather on mobile